createdAt,value
2023-02-27T00:00:20.358Z,1.80
2023-02-27T00:02:51.830Z,1.53
2023-02-27T00:05:22.490Z,1.60
2023-02-27T00:07:51.000Z,1.83
2023-02-27T00:10:21.260Z,1.53
2023-02-27T00:12:54.286Z,1.60
2023-02-27T00:15:22.623Z,1.70
2023-02-27T00:17:51.134Z,1.90
2023-02-27T00:20:20.973Z,1.50
2023-02-27T00:22:49.214Z,1.83
2023-02-27T00:25:17.847Z,1.60
2023-02-27T00:27:47.425Z,1.70
2023-02-27T00:30:17.167Z,1.87
2023-02-27T00:32:45.676Z,1.77
2023-02-27T00:35:14.216Z,2.13
2023-02-27T00:37:43.047Z,1.80
2023-02-27T00:40:13.416Z,1.80
2023-02-27T00:42:41.953Z,1.90
2023-02-27T00:45:12.424Z,1.43
2023-02-27T00:47:40.617Z,2.07
2023-02-27T00:50:10.562Z,2.10
2023-02-27T00:52:38.893Z,1.80
2023-02-27T00:55:08.598Z,1.77
2023-02-27T00:57:36.831Z,1.60
2023-02-27T01:00:07.339Z,1.80
2023-02-27T01:02:37.186Z,1.77
2023-02-27T01:05:10.165Z,1.80
2023-02-27T01:07:39.311Z,1.80
2023-02-27T01:10:11.071Z,1.60
2023-02-27T01:12:39.905Z,1.47
2023-02-27T01:15:10.890Z,1.80
2023-02-27T01:17:40.612Z,1.63
2023-02-27T01:20:11.740Z,2.03
2023-02-27T01:22:40.043Z,1.87
2023-02-27T01:25:09.839Z,1.60
2023-02-27T01:27:40.842Z,1.63
2023-02-27T01:30:17.390Z,1.83
2023-02-27T01:32:47.470Z,1.67
2023-02-27T01:35:15.835Z,1.93
2023-02-27T01:37:44.606Z,1.80
2023-02-27T01:40:14.899Z,1.77
2023-02-27T01:42:43.750Z,2.07
2023-02-27T01:45:30.335Z,1.90
2023-02-27T01:48:08.098Z,1.80
2023-02-27T01:50:40.857Z,1.63
2023-02-27T01:53:11.639Z,1.70
2023-02-27T01:55:40.706Z,1.40
2023-02-27T01:58:12.575Z,1.83
2023-02-27T02:00:41.210Z,1.70
2023-02-27T02:03:19.956Z,1.93
2023-02-27T02:05:48.938Z,1.60
2023-02-27T02:08:21.244Z,1.60
2023-02-27T02:10:52.925Z,1.70
2023-02-27T02:13:23.968Z,2.10
2023-02-27T02:16:08.585Z,1.73
2023-02-27T02:18:50.147Z,1.90
2023-02-27T02:22:11.597Z,1.93
2023-02-27T02:25:33.994Z,2.00
2023-02-27T02:28:17.010Z,1.70
2023-02-27T02:31:25.384Z,1.90
2023-02-27T02:34:44.227Z,1.80
2023-02-27T02:38:04.495Z,1.87
2023-02-27T02:40:39.209Z,1.90
2023-02-27T02:43:13.585Z,1.57
2023-02-27T02:45:51.171Z,1.73
2023-02-27T02:48:28.247Z,2.00
2023-02-27T02:51:07.025Z,1.77
2023-02-27T02:53:43.994Z,1.80
2023-02-27T02:56:23.204Z,2.13
2023-02-27T02:58:59.729Z,1.60
2023-02-27T03:01:33.454Z,1.60
2023-02-27T03:04:09.620Z,1.93
2023-02-27T03:06:42.079Z,1.70
2023-02-27T03:09:18.420Z,2.10
2023-02-27T03:11:52.271Z,1.90
2023-02-27T03:14:30.336Z,1.70
2023-02-27T03:17:08.316Z,1.73
2023-02-27T03:19:42.694Z,1.80
2023-02-27T03:22:16.787Z,1.90
2023-02-27T03:24:49.359Z,1.70
2023-02-27T03:27:20.312Z,1.93
2023-02-27T03:29:54.922Z,1.80
2023-02-27T03:32:31.151Z,2.00
2023-02-27T03:35:01.091Z,2.00
2023-02-27T03:37:39.596Z,2.00
2023-02-27T03:40:20.372Z,1.70
2023-02-27T03:42:57.384Z,1.90
2023-02-27T03:45:59.266Z,1.77
2023-02-27T03:48:27.712Z,1.80
2023-02-27T03:50:56.237Z,1.80
2023-02-27T03:53:33.434Z,1.77
2023-02-27T03:56:04.324Z,2.13
2023-02-27T03:58:34.298Z,1.90
2023-02-27T04:01:03.035Z,1.90
2023-02-27T04:03:35.696Z,1.83
2023-02-27T04:06:24.572Z,1.90
2023-02-27T04:09:00.667Z,1.90
2023-02-27T04:11:57.340Z,1.80
2023-02-27T04:14:43.073Z,1.90
2023-02-27T04:17:25.329Z,1.87
2023-02-27T04:20:14.625Z,1.60
2023-02-27T04:22:49.517Z,1.90
2023-02-27T04:25:35.941Z,1.70
2023-02-27T04:28:17.402Z,2.00
2023-02-27T04:31:04.224Z,1.70
2023-02-27T04:33:44.790Z,1.67
2023-02-27T04:36:20.592Z,2.00
2023-02-27T04:38:55.406Z,1.90
2023-02-27T04:41:29.288Z,1.57
2023-02-27T04:43:59.411Z,1.97
2023-02-27T04:46:31.735Z,1.90
2023-02-27T04:49:05.005Z,1.70
2023-02-27T04:51:40.048Z,2.00
2023-02-27T04:54:12.129Z,1.90
2023-02-27T04:56:45.972Z,1.80
2023-02-27T04:59:19.484Z,1.87
2023-02-27T05:02:16.620Z,1.80
2023-02-27T05:04:46.612Z,2.13
2023-02-27T05:07:20.036Z,2.23
2023-02-27T05:09:53.431Z,2.07
2023-02-27T05:12:26.520Z,2.13
2023-02-27T05:15:02.293Z,2.20
2023-02-27T05:17:37.302Z,2.03
2023-02-27T05:20:07.937Z,1.90
2023-02-27T05:22:47.268Z,2.20
2023-02-27T05:25:22.639Z,2.67
2023-02-27T05:27:55.471Z,2.20
2023-02-27T05:30:29.997Z,2.33
2023-02-27T05:33:06.700Z,2.30
2023-02-27T05:35:39.750Z,2.33
2023-02-27T05:38:16.538Z,2.47
2023-02-27T05:40:50.940Z,2.53
2023-02-27T05:43:24.510Z,2.47
2023-02-27T05:45:57.919Z,2.30
2023-02-27T05:48:32.256Z,2.00
2023-02-27T05:51:01.061Z,2.07
2023-02-27T05:53:35.180Z,2.40
2023-02-27T05:56:06.719Z,2.60
2023-02-27T05:58:40.206Z,2.53
2023-02-27T06:01:11.428Z,2.37
2023-02-27T06:03:42.150Z,2.53
2023-02-27T06:06:15.799Z,2.20
2023-02-27T06:08:44.364Z,2.30
2023-02-27T06:11:13.276Z,2.43
2023-02-27T06:13:42.284Z,2.10
2023-02-27T06:16:13.151Z,2.77
2023-02-27T06:18:42.831Z,2.20
2023-02-27T06:21:15.032Z,2.67
2023-02-27T06:23:43.341Z,2.33
2023-02-27T06:26:14.286Z,2.37
2023-02-27T06:28:43.360Z,2.43
2023-02-27T06:31:11.677Z,2.30
2023-02-27T06:33:40.359Z,2.10
2023-02-27T06:36:10.001Z,2.40
2023-02-27T06:38:38.255Z,2.50
2023-02-27T06:41:07.457Z,2.23
2023-02-27T06:43:37.111Z,3.20
2023-02-27T06:46:06.522Z,2.73
2023-02-27T06:48:35.214Z,2.40
2023-02-27T06:51:03.589Z,2.80
2023-02-27T06:53:33.507Z,2.53
2023-02-27T06:56:01.821Z,2.37
2023-02-27T06:58:30.005Z,2.10
2023-02-27T07:01:00.669Z,2.57
2023-02-27T07:03:30.826Z,2.90
2023-02-27T07:05:59.563Z,2.60
2023-02-27T07:08:27.921Z,2.43
2023-02-27T07:10:57.597Z,2.43
2023-02-27T07:13:25.962Z,2.20
2023-02-27T07:15:54.255Z,2.30
2023-02-27T07:18:22.560Z,2.80
2023-02-27T07:20:52.349Z,3.13
2023-02-27T07:23:20.625Z,2.60
2023-02-27T07:25:49.402Z,2.97
2023-02-27T07:28:19.143Z,2.67
2023-02-27T07:30:47.805Z,2.40
2023-02-27T07:33:16.114Z,2.63
2023-02-27T07:35:46.648Z,2.20
2023-02-27T07:38:14.871Z,2.70
2023-02-27T07:40:43.291Z,2.77
2023-02-27T07:43:12.611Z,2.30
2023-02-27T07:45:42.754Z,2.90
2023-02-27T07:48:11.044Z,2.63
2023-02-27T07:50:39.541Z,2.33
2023-02-27T07:53:08.074Z,2.83
2023-02-27T07:55:36.730Z,2.67
2023-02-27T07:58:04.960Z,2.50
2023-02-27T08:00:33.186Z,2.50
2023-02-27T08:03:02.846Z,2.40
2023-02-27T08:05:31.447Z,2.57
2023-02-27T08:07:59.750Z,2.57
2023-02-27T08:10:28.089Z,2.47
2023-02-27T08:12:56.720Z,2.53
2023-02-27T08:15:25.433Z,2.50
2023-02-27T08:17:53.714Z,2.67
2023-02-27T08:20:24.028Z,2.40
2023-02-27T08:22:52.443Z,2.20
2023-02-27T08:25:21.481Z,2.73
2023-02-27T08:27:49.711Z,2.40
2023-02-27T08:30:18.266Z,2.57
2023-02-27T08:32:46.697Z,2.80
2023-02-27T08:35:15.438Z,2.20
2023-02-27T08:37:45.000Z,2.47
2023-02-27T08:40:13.856Z,2.43
2023-02-27T08:42:42.086Z,2.17
2023-02-27T08:45:12.159Z,2.80
2023-02-27T08:47:40.386Z,2.63
2023-02-27T08:50:10.551Z,2.80
2023-02-27T08:52:38.874Z,2.63
2023-02-27T08:55:10.345Z,2.50
2023-02-27T08:57:39.442Z,2.50
2023-02-27T09:00:10.488Z,2.57
2023-02-27T09:02:38.949Z,2.50
2023-02-27T09:05:17.923Z,2.47
2023-02-27T09:07:46.123Z,2.23
2023-02-27T09:10:16.074Z,2.33
2023-02-27T09:12:44.385Z,2.27
2023-02-27T09:15:13.270Z,2.33
2023-02-27T09:17:41.830Z,2.93
2023-02-27T09:20:12.263Z,2.27
2023-02-27T09:22:41.293Z,2.17
2023-02-27T09:25:10.743Z,2.37
2023-02-27T09:27:40.326Z,2.07
2023-02-27T09:30:10.760Z,2.13
2023-02-27T09:32:41.595Z,2.57
2023-02-27T09:35:10.792Z,2.13
2023-02-27T09:37:39.412Z,2.50
2023-02-27T09:40:09.095Z,2.03
2023-02-27T09:42:45.493Z,2.07
2023-02-27T09:45:24.174Z,2.17
2023-02-27T09:47:57.717Z,2.40
2023-02-27T09:50:40.083Z,2.37
2023-02-27T09:53:16.150Z,1.93
2023-02-27T09:55:47.121Z,2.00
2023-02-27T09:58:36.147Z,2.10
2023-02-27T10:01:11.531Z,2.57
2023-02-27T10:04:14.093Z,2.00
2023-02-27T10:06:48.381Z,2.23
2023-02-27T10:09:31.227Z,2.00
2023-02-27T10:12:14.203Z,2.50
2023-02-27T10:14:49.222Z,2.00
2023-02-27T10:17:25.626Z,2.30
2023-02-27T10:19:55.647Z,2.47
2023-02-27T10:22:29.933Z,2.40
2023-02-27T10:25:06.263Z,2.47
2023-02-27T10:27:37.886Z,2.17
2023-02-27T10:30:29.481Z,2.57
2023-02-27T10:33:12.698Z,2.10
2023-02-27T10:35:44.690Z,1.90
2023-02-27T10:38:18.025Z,2.00
2023-02-27T10:40:47.899Z,2.07
2023-02-27T10:43:19.447Z,2.27
2023-02-27T10:45:49.133Z,2.13
2023-02-27T10:48:18.405Z,2.20
2023-02-27T10:50:51.099Z,2.03
2023-02-27T10:53:23.026Z,2.13
2023-02-27T10:56:01.999Z,2.00
2023-02-27T10:58:34.876Z,2.00
2023-02-27T11:01:07.517Z,1.87
2023-02-27T11:03:41.145Z,1.63
2023-02-27T11:06:14.522Z,1.93
2023-02-27T11:08:43.688Z,1.97
2023-02-27T11:11:13.298Z,1.93
2023-02-27T11:13:44.162Z,2.03
2023-02-27T11:16:16.908Z,2.00
2023-02-27T11:18:47.632Z,2.00
2023-02-27T11:21:23.227Z,1.93
2023-02-27T11:24:01.690Z,1.90
2023-02-27T11:26:36.279Z,2.07
2023-02-27T11:29:18.392Z,1.80
2023-02-27T11:31:53.185Z,1.60
2023-02-27T11:34:30.000Z,1.77
2023-02-27T11:37:02.029Z,1.97
2023-02-27T11:39:37.797Z,1.80
2023-02-27T11:42:20.113Z,1.70
2023-02-27T11:44:56.819Z,1.67
2023-02-27T11:47:32.591Z,1.57
2023-02-27T11:50:42.030Z,2.03
2023-02-27T11:53:47.957Z,1.60
2023-02-27T11:56:22.499Z,1.50
2023-02-27T11:59:02.735Z,1.63
2023-02-27T12:01:38.451Z,1.73
2023-02-27T12:04:15.967Z,1.63
2023-02-27T12:06:52.100Z,1.77
2023-02-27T12:09:35.749Z,1.70
2023-02-27T12:12:10.598Z,2.17
2023-02-27T12:14:48.404Z,1.80
2023-02-27T12:17:23.711Z,1.87
2023-02-27T12:20:22.723Z,2.10
2023-02-27T12:22:54.553Z,1.83
2023-02-27T12:25:37.793Z,1.60
2023-02-27T12:28:21.653Z,1.50
2023-02-27T12:31:07.787Z,2.20
2023-02-27T12:33:43.489Z,1.60
2023-02-27T12:36:15.369Z,1.77
2023-02-27T12:38:43.820Z,1.80
2023-02-27T12:41:37.648Z,1.60
2023-02-27T12:44:32.220Z,1.87
2023-02-27T12:47:16.045Z,1.93
2023-02-27T12:49:53.778Z,1.70
2023-02-27T12:52:38.541Z,1.70
2023-02-27T12:55:14.263Z,1.70
2023-02-27T12:58:15.139Z,2.50
2023-02-27T13:00:48.790Z,1.90
2023-02-27T13:03:23.291Z,1.53
2023-02-27T13:06:01.673Z,1.60
2023-02-27T13:08:58.408Z,1.80
2023-02-27T13:11:44.493Z,1.60
2023-02-27T13:14:29.625Z,1.50
2023-02-27T13:17:03.253Z,1.30
2023-02-27T13:19:36.496Z,1.43
2023-02-27T13:22:16.047Z,1.70
2023-02-27T13:24:50.257Z,1.37
2023-02-27T13:27:25.001Z,1.60
2023-02-27T13:30:08.438Z,1.57
2023-02-27T13:32:45.618Z,1.47
2023-02-27T13:35:29.606Z,1.40
2023-02-27T13:38:02.187Z,1.20
2023-02-27T13:40:41.455Z,1.20
2023-02-27T13:43:40.555Z,1.53
2023-02-27T13:46:24.971Z,1.30
2023-02-27T13:48:54.558Z,1.30
2023-02-27T13:51:59.617Z,1.33
2023-02-27T13:54:32.793Z,1.30
2023-02-27T13:57:24.307Z,1.77
2023-02-27T13:59:57.153Z,1.50
2023-02-27T14:02:57.820Z,1.40
2023-02-27T14:05:36.331Z,1.40
2023-02-27T14:08:15.456Z,1.60
2023-02-27T14:10:58.165Z,1.50
2023-02-27T14:14:06.639Z,1.47
2023-02-27T14:19:59.469Z,1.23
2023-02-27T14:23:18.176Z,1.30
2023-02-27T14:25:49.230Z,1.60
2023-02-27T14:28:27.220Z,1.33
2023-02-27T14:31:01.086Z,1.20
2023-02-27T14:33:45.509Z,1.50
2023-02-27T14:36:20.490Z,1.30
2023-02-27T14:38:49.881Z,1.30
2023-02-27T14:41:38.088Z,1.40
2023-02-27T14:44:06.573Z,1.30
2023-02-27T14:46:39.386Z,1.50
2023-02-27T14:49:18.940Z,1.43
2023-02-27T14:51:47.288Z,3.47
2023-02-27T14:54:19.592Z,1.60
2023-02-27T14:56:56.104Z,1.73
2023-02-27T14:59:26.566Z,2.33
2023-02-27T15:02:04.382Z,1.60
2023-02-27T15:04:34.438Z,1.30
2023-02-27T15:07:04.082Z,1.40
2023-02-27T15:09:42.893Z,1.50
2023-02-27T15:12:18.147Z,1.57
2023-02-27T15:14:51.486Z,1.60
2023-02-27T15:17:23.056Z,1.60
2023-02-27T15:19:55.159Z,1.70
2023-02-27T15:22:38.642Z,1.20
2023-02-27T15:25:23.647Z,1.70
2023-02-27T15:27:51.949Z,1.93
2023-02-27T15:30:23.568Z,1.80
2023-02-27T15:32:55.640Z,1.60
2023-02-27T15:35:27.545Z,1.47
2023-02-27T15:37:59.399Z,1.40
2023-02-27T15:40:31.488Z,1.30
2023-02-27T15:43:01.342Z,1.43
2023-02-27T15:45:33.643Z,1.60
2023-02-27T15:48:04.019Z,1.57
2023-02-27T15:50:38.163Z,1.50
2023-02-27T15:53:14.838Z,1.40
2023-02-27T15:55:46.956Z,1.40
2023-02-27T15:58:24.335Z,1.70
2023-02-27T16:01:00.714Z,1.40
2023-02-27T16:03:34.747Z,1.43
2023-02-27T16:06:03.258Z,1.37
2023-02-27T16:08:32.447Z,1.60
2023-02-27T16:11:02.399Z,1.47
2023-02-27T16:13:35.925Z,1.73
2023-02-27T16:16:28.113Z,1.90
2023-02-27T16:19:00.166Z,1.70
2023-02-27T16:21:31.558Z,1.50
2023-02-27T16:24:21.617Z,1.67
2023-02-27T16:26:53.563Z,1.90
2023-02-27T16:29:25.276Z,1.80
2023-02-27T16:31:56.608Z,1.70
2023-02-27T16:34:44.268Z,2.03
2023-02-27T16:37:22.828Z,2.13
2023-02-27T16:39:54.278Z,1.90
2023-02-27T16:42:22.952Z,1.70
2023-02-27T16:44:51.250Z,1.63
2023-02-27T16:47:19.509Z,1.87
2023-02-27T16:49:49.497Z,1.40
2023-02-27T16:52:17.780Z,1.53
2023-02-27T16:54:46.100Z,1.93
2023-02-27T16:57:14.360Z,1.40
2023-02-27T16:59:44.125Z,1.30
2023-02-27T17:02:16.195Z,2.50
2023-02-27T17:04:50.038Z,1.70
2023-02-27T17:07:19.851Z,1.93
2023-02-27T17:09:49.154Z,1.67
2023-02-27T17:12:18.217Z,1.70
2023-02-27T17:14:47.137Z,1.53
2023-02-27T17:17:15.963Z,1.83
2023-02-27T17:19:45.368Z,2.10
2023-02-27T17:22:15.752Z,1.90
2023-02-27T17:24:44.067Z,3.43
2023-02-27T17:27:12.435Z,6.70
2023-02-27T17:29:40.979Z,6.70
2023-02-27T17:32:09.478Z,1.87
2023-02-27T17:34:37.960Z,3.47
2023-02-27T17:37:06.658Z,4.40
2023-02-27T17:39:36.309Z,2.50
2023-02-27T17:42:04.831Z,4.43
2023-02-27T17:44:33.206Z,5.13
2023-02-27T17:47:01.498Z,5.77
2023-02-27T17:49:29.760Z,2.60
2023-02-27T17:52:00.649Z,3.03
2023-02-27T17:54:29.046Z,2.33
2023-02-27T17:56:58.721Z,2.50
2023-02-27T17:59:27.110Z,7.57
2023-02-27T18:01:55.881Z,9.57
2023-02-27T18:04:24.423Z,3.20
2023-02-27T18:06:53.017Z,3.03
2023-02-27T18:09:21.335Z,4.60
2023-02-27T18:11:49.650Z,4.50
2023-02-27T18:14:19.328Z,3.43
2023-02-27T18:16:47.730Z,3.90
2023-02-27T18:19:15.972Z,2.63
2023-02-27T18:21:47.049Z,3.50
2023-02-27T18:24:17.458Z,3.60
2023-02-27T18:26:45.775Z,8.07
2023-02-27T18:29:16.249Z,3.50
2023-02-27T18:31:50.111Z,3.17
2023-02-27T18:34:18.468Z,3.90
2023-02-27T18:36:46.779Z,3.07
2023-02-27T18:39:15.486Z,6.43
2023-02-27T18:41:43.729Z,4.20
2023-02-27T18:44:12.672Z,3.70
2023-02-27T18:46:41.206Z,5.43
2023-02-27T18:49:11.120Z,3.40
2023-02-27T18:51:39.393Z,2.70
2023-02-27T18:54:08.422Z,4.60
2023-02-27T18:56:36.731Z,3.27
2023-02-27T18:59:06.610Z,2.77
2023-02-27T19:01:42.379Z,2.87
2023-02-27T19:04:12.086Z,2.40
2023-02-27T19:06:42.862Z,2.27
2023-02-27T19:09:16.072Z,2.30
2023-02-27T19:11:46.035Z,3.03
2023-02-27T19:14:16.198Z,2.47
2023-02-27T19:16:46.172Z,4.37
2023-02-27T19:19:15.809Z,2.50
2023-02-27T19:21:44.259Z,2.57
2023-02-27T19:24:14.510Z,2.83
2023-02-27T19:26:43.049Z,2.80
2023-02-27T19:29:11.420Z,2.40
2023-02-27T19:31:40.562Z,3.40
2023-02-27T19:34:09.093Z,2.50
2023-02-27T19:36:40.202Z,1.97
2023-02-27T19:39:08.543Z,2.20
2023-02-27T19:41:37.460Z,2.63
2023-02-27T19:44:05.807Z,2.20
2023-02-27T19:46:35.428Z,2.27
2023-02-27T19:49:06.065Z,2.20
2023-02-27T19:51:34.860Z,2.10
2023-02-27T19:54:05.022Z,2.07
2023-02-27T19:56:33.353Z,2.13
2023-02-27T19:59:02.091Z,1.90
2023-02-27T20:01:34.077Z,2.50
2023-02-27T20:04:03.821Z,2.20
2023-02-27T20:06:42.421Z,1.80
2023-02-27T20:09:15.250Z,1.70
2023-02-27T20:11:44.577Z,1.97
2023-02-27T20:14:14.924Z,1.93
2023-02-27T20:16:44.518Z,2.17
2023-02-27T20:19:16.988Z,2.00
2023-02-27T20:21:46.273Z,2.30
2023-02-27T20:24:18.208Z,1.77
2023-02-27T20:26:49.939Z,2.20
2023-02-27T20:29:21.630Z,1.80
2023-02-27T20:31:52.694Z,1.67
2023-02-27T20:34:26.305Z,1.97
2023-02-27T20:36:56.037Z,1.77
2023-02-27T20:39:27.964Z,2.00
2023-02-27T20:41:56.464Z,2.00
2023-02-27T20:44:24.792Z,2.00
2023-02-27T20:46:53.206Z,1.97
2023-02-27T20:49:22.755Z,2.07
2023-02-27T20:51:51.052Z,2.10
2023-02-27T20:54:21.059Z,2.10
2023-02-27T20:56:54.300Z,2.00
2023-02-27T20:59:25.213Z,1.90
2023-02-27T21:01:55.253Z,2.33
2023-02-27T21:04:43.337Z,2.03
2023-02-27T21:07:12.924Z,1.90
2023-02-27T21:09:41.328Z,1.60
2023-02-27T21:12:12.247Z,2.20
2023-02-27T21:14:44.307Z,2.17
2023-02-27T21:17:13.821Z,2.00
2023-02-27T21:19:42.143Z,2.07
2023-02-27T21:22:11.411Z,2.07
2023-02-27T21:24:39.832Z,2.00
2023-02-27T21:27:08.128Z,2.10
2023-02-27T21:29:37.684Z,1.83
2023-02-27T21:32:07.509Z,2.37
2023-02-27T21:34:35.868Z,2.27
2023-02-27T21:37:07.326Z,2.40
2023-02-27T21:39:35.829Z,2.23
2023-02-27T21:42:06.799Z,1.97
2023-02-27T21:44:38.721Z,2.40
2023-02-27T21:47:10.056Z,2.10
2023-02-27T21:49:39.233Z,2.43
2023-02-27T21:52:08.044Z,2.53
2023-02-27T21:54:36.564Z,2.20
2023-02-27T21:57:05.145Z,2.40
2023-02-27T21:59:33.411Z,2.10
2023-02-27T22:02:03.312Z,2.80
2023-02-27T22:04:31.631Z,2.20
2023-02-27T22:07:00.047Z,2.60
2023-02-27T22:09:28.604Z,2.47
2023-02-27T22:11:57.314Z,2.53
2023-02-27T22:14:26.211Z,2.30
2023-02-27T22:16:54.471Z,2.20
2023-02-27T22:19:24.038Z,2.40
2023-02-27T22:21:52.438Z,2.60
2023-02-27T22:24:20.982Z,2.57
2023-02-27T22:26:50.300Z,2.90
2023-02-27T22:29:18.791Z,2.80
2023-02-27T22:31:47.978Z,2.80
2023-02-27T22:34:19.324Z,2.87
2023-02-27T22:36:52.365Z,2.70
2023-02-27T22:39:21.451Z,2.60
2023-02-27T22:41:49.858Z,2.20
2023-02-27T22:44:18.679Z,2.90
2023-02-27T22:46:49.077Z,3.00
2023-02-27T22:49:19.999Z,2.67
2023-02-27T22:51:51.618Z,2.50
2023-02-27T22:54:21.474Z,2.73
2023-02-27T22:56:51.773Z,2.70
2023-02-27T22:59:20.435Z,2.67
2023-02-27T23:04:43.505Z,2.53
2023-02-27T23:07:13.039Z,3.07
2023-02-27T23:09:41.410Z,3.20
2023-02-27T23:12:09.678Z,2.90
2023-02-27T23:14:37.863Z,3.20
2023-02-27T23:17:06.051Z,2.43
2023-02-27T23:19:34.633Z,2.50
2023-02-27T23:22:02.939Z,2.80
2023-02-27T23:24:32.466Z,2.97
2023-02-27T23:27:02.711Z,2.60
2023-02-27T23:29:31.188Z,2.47
2023-02-27T23:31:59.531Z,2.70
2023-02-27T23:34:29.116Z,2.90
2023-02-27T23:37:01.934Z,2.60
2023-02-27T23:39:30.329Z,2.80
2023-02-27T23:42:00.066Z,2.40
2023-02-27T23:44:27.397Z,2.57
2023-02-27T23:46:55.674Z,2.50
2023-02-27T23:49:24.104Z,2.90
2023-02-27T23:51:52.476Z,2.73
2023-02-27T23:54:20.669Z,3.03
2023-02-27T23:56:49.388Z,2.87
2023-02-27T23:59:19.080Z,2.67
